sensor_id;sensor_type;location;lat;lon;timestamp;P1;durP1;ratioP1;P2;durP2;ratioP2
18881;SDS011;9573;50.948;11.600;2023-09-30T00:00:04;11.43;;;3.17;;
18881;SDS011;9573;50.948;11.600;2023-09-30T00:02:34;9.70;;;2.70;;
18881;SDS011;9573;50.948;11.600;2023-09-30T00:05:01;8.13;;;2.63;;
18881;SDS011;9573;50.948;11.600;2023-09-30T00:07:29;10.83;;;2.63;;
18881;SDS011;9573;50.948;11.600;2023-09-30T00:09:56;10.27;;;2.67;;
18881;SDS011;9573;50.948;11.600;2023-09-30T00:12:23;5.90;;;2.60;;
18881;SDS011;9573;50.948;11.600;2023-09-30T00:14:52;11.97;;;2.70;;
18881;SDS011;9573;50.948;11.600;2023-09-30T00:17:19;10.47;;;2.50;;
18881;SDS011;9573;50.948;11.600;2023-09-30T00:19:46;5.90;;;2.27;;
18881;SDS011;9573;50.948;11.600;2023-09-30T00:22:14;8.27;;;2.60;;
18881;SDS011;9573;50.948;11.600;2023-09-30T00:24:41;7.57;;;2.63;;
18881;SDS011;9573;50.948;11.600;2023-09-30T00:27:08;5.17;;;2.43;;
18881;SDS011;9573;50.948;11.600;2023-09-30T00:29:35;5.53;;;2.20;;
18881;SDS011;9573;50.948;11.600;2023-09-30T00:32:04;10.23;;;2.67;;
18881;SDS011;9573;50.948;11.600;2023-09-30T00:34:32;12.57;;;2.37;;
18881;SDS011;9573;50.948;11.600;2023-09-30T00:37:00;5.07;;;2.30;;
18881;SDS011;9573;50.948;11.600;2023-09-30T00:39:27;9.70;;;2.80;;
18881;SDS011;9573;50.948;11.600;2023-09-30T00:41:56;5.47;;;2.53;;
18881;SDS011;9573;50.948;11.600;2023-09-30T00:44:24;8.63;;;2.60;;
18881;SDS011;9573;50.948;11.600;2023-09-30T00:46:51;9.03;;;2.57;;
18881;SDS011;9573;50.948;11.600;2023-09-30T00:49:21;5.17;;;2.20;;
18881;SDS011;9573;50.948;11.600;2023-09-30T00:51:50;9.10;;;2.20;;
18881;SDS011;9573;50.948;11.600;2023-09-30T00:54:17;6.10;;;2.27;;
18881;SDS011;9573;50.948;11.600;2023-09-30T00:56:46;6.80;;;2.20;;
18881;SDS011;9573;50.948;11.600;2023-09-30T00:59:15;10.57;;;2.73;;
18881;SDS011;9573;50.948;11.600;2023-09-30T01:01:43;10.00;;;2.40;;
18881;SDS011;9573;50.948;11.600;2023-09-30T01:04:12;9.50;;;2.27;;
18881;SDS011;9573;50.948;11.600;2023-09-30T01:06:42;6.17;;;2.47;;
18881;SDS011;9573;50.948;11.600;2023-09-30T01:09:09;9.63;;;2.23;;
18881;SDS011;9573;50.948;11.600;2023-09-30T01:11:37;7.23;;;2.17;;
18881;SDS011;9573;50.948;11.600;2023-09-30T01:16:53;12.70;;;2.87;;
18881;SDS011;9573;50.948;11.600;2023-09-30T01:19:20;9.30;;;2.37;;
18881;SDS011;9573;50.948;11.600;2023-09-30T01:21:51;9.97;;;2.47;;
18881;SDS011;9573;50.948;11.600;2023-09-30T01:24:21;14.93;;;3.13;;
18881;SDS011;9573;50.948;11.600;2023-09-30T01:26:48;11.57;;;2.73;;
18881;SDS011;9573;50.948;11.600;2023-09-30T01:29:15;10.70;;;2.53;;
18881;SDS011;9573;50.948;11.600;2023-09-30T01:31:43;12.87;;;2.90;;
18881;SDS011;9573;50.948;11.600;2023-09-30T01:34:13;10.23;;;2.93;;
18881;SDS011;9573;50.948;11.600;2023-09-30T01:36:41;15.40;;;3.10;;
18881;SDS011;9573;50.948;11.600;2023-09-30T01:39:09;10.63;;;2.70;;
18881;SDS011;9573;50.948;11.600;2023-09-30T01:41:38;11.03;;;2.87;;
18881;SDS011;9573;50.948;11.600;2023-09-30T01:44:06;11.00;;;2.90;;
18881;SDS011;9573;50.948;11.600;2023-09-30T01:46:34;10.63;;;2.73;;
18881;SDS011;9573;50.948;11.600;2023-09-30T01:49:02;11.27;;;2.80;;
18881;SDS011;9573;50.948;11.600;2023-09-30T01:51:29;8.33;;;2.63;;
18881;SDS011;9573;50.948;11.600;2023-09-30T01:53:57;12.87;;;3.23;;
18881;SDS011;9573;50.948;11.600;2023-09-30T01:56:25;12.33;;;2.73;;
18881;SDS011;9573;50.948;11.600;2023-09-30T01:58:52;9.50;;;2.97;;
18881;SDS011;9573;50.948;11.600;2023-09-30T02:01:20;13.33;;;3.17;;
18881;SDS011;9573;50.948;11.600;2023-09-30T02:03:47;8.60;;;2.77;;
18881;SDS011;9573;50.948;11.600;2023-09-30T02:06:14;12.10;;;2.93;;
18881;SDS011;9573;50.948;11.600;2023-09-30T02:08:41;11.47;;;2.90;;
18881;SDS011;9573;50.948;11.600;2023-09-30T02:11:09;15.40;;;2.90;;
18881;SDS011;9573;50.948;11.600;2023-09-30T02:13:39;12.93;;;2.80;;
18881;SDS011;9573;50.948;11.600;2023-09-30T02:16:11;12.30;;;3.00;;
18881;SDS011;9573;50.948;11.600;2023-09-30T02:18:38;10.33;;;2.90;;
18881;SDS011;9573;50.948;11.600;2023-09-30T02:21:06;11.77;;;3.00;;
18881;SDS011;9573;50.948;11.600;2023-09-30T02:23:34;12.67;;;2.60;;
18881;SDS011;9573;50.948;11.600;2023-09-30T02:26:01;13.73;;;3.03;;
18881;SDS011;9573;50.948;11.600;2023-09-30T02:28:28;10.37;;;3.07;;
18881;SDS011;9573;50.948;11.600;2023-09-30T02:30:58;10.40;;;2.87;;
18881;SDS011;9573;50.948;11.600;2023-09-30T02:33:26;10.90;;;3.37;;
18881;SDS011;9573;50.948;11.600;2023-09-30T02:35:53;14.23;;;3.00;;
18881;SDS011;9573;50.948;11.600;2023-09-30T02:38:20;12.63;;;2.93;;
18881;SDS011;9573;50.948;11.600;2023-09-30T02:40:48;11.70;;;3.47;;
18881;SDS011;9573;50.948;11.600;2023-09-30T02:43:16;14.53;;;2.93;;
18881;SDS011;9573;50.948;11.600;2023-09-30T02:45:43;15.43;;;3.03;;
18881;SDS011;9573;50.948;11.600;2023-09-30T02:48:12;9.03;;;2.90;;
18881;SDS011;9573;50.948;11.600;2023-09-30T02:50:41;9.07;;;2.87;;
18881;SDS011;9573;50.948;11.600;2023-09-30T02:53:10;10.70;;;3.23;;
18881;SDS011;9573;50.948;11.600;2023-09-30T02:55:38;16.37;;;3.10;;
18881;SDS011;9573;50.948;11.600;2023-09-30T02:58:06;15.07;;;3.00;;
18881;SDS011;9573;50.948;11.600;2023-09-30T03:00:34;11.83;;;2.57;;
18881;SDS011;9573;50.948;11.600;2023-09-30T03:03:03;13.63;;;2.90;;
18881;SDS011;9573;50.948;11.600;2023-09-30T03:05:32;12.00;;;3.00;;
18881;SDS011;9573;50.948;11.600;2023-09-30T03:07:59;14.60;;;3.03;;
18881;SDS011;9573;50.948;11.600;2023-09-30T03:10:27;9.93;;;2.87;;
18881;SDS011;9573;50.948;11.600;2023-09-30T03:12:54;10.00;;;2.87;;
18881;SDS011;9573;50.948;11.600;2023-09-30T03:15:26;10.37;;;2.80;;
18881;SDS011;9573;50.948;11.600;2023-09-30T03:17:56;18.57;;;2.90;;
18881;SDS011;9573;50.948;11.600;2023-09-30T03:20:23;10.23;;;2.53;;
18881;SDS011;9573;50.948;11.600;2023-09-30T03:22:51;8.93;;;3.30;;
18881;SDS011;9573;50.948;11.600;2023-09-30T03:25:20;15.40;;;2.90;;
18881;SDS011;9573;50.948;11.600;2023-09-30T03:27:47;9.07;;;2.90;;
18881;SDS011;9573;50.948;11.600;2023-09-30T03:30:16;15.47;;;3.10;;
18881;SDS011;9573;50.948;11.600;2023-09-30T03:32:45;13.63;;;2.80;;
18881;SDS011;9573;50.948;11.600;2023-09-30T03:35:12;17.27;;;3.00;;
18881;SDS011;9573;50.948;11.600;2023-09-30T03:37:42;13.57;;;2.97;;
18881;SDS011;9573;50.948;11.600;2023-09-30T03:40:12;10.97;;;2.83;;
18881;SDS011;9573;50.948;11.600;2023-09-30T03:42:43;15.37;;;3.10;;
18881;SDS011;9573;50.948;11.600;2023-09-30T03:45:14;12.30;;;2.83;;
18881;SDS011;9573;50.948;11.600;2023-09-30T03:47:42;13.87;;;3.03;;
18881;SDS011;9573;50.948;11.600;2023-09-30T03:50:10;15.97;;;2.90;;
18881;SDS011;9573;50.948;11.600;2023-09-30T03:52:39;12.03;;;3.10;;
18881;SDS011;9573;50.948;11.600;2023-09-30T03:55:09;14.80;;;2.97;;
18881;SDS011;9573;50.948;11.600;2023-09-30T03:57:39;7.37;;;3.00;;
18881;SDS011;9573;50.948;11.600;2023-09-30T04:00:07;14.80;;;3.13;;
18881;SDS011;9573;50.948;11.600;2023-09-30T04:02:41;11.30;;;2.83;;
18881;SDS011;9573;50.948;11.600;2023-09-30T04:05:09;12.97;;;3.20;;
18881;SDS011;9573;50.948;11.600;2023-09-30T04:07:39;18.17;;;3.30;;
18881;SDS011;9573;50.948;11.600;2023-09-30T04:10:07;14.63;;;3.17;;
18881;SDS011;9573;50.948;11.600;2023-09-30T04:12:37;11.67;;;3.07;;
18881;SDS011;9573;50.948;11.600;2023-09-30T04:15:05;13.73;;;3.10;;
18881;SDS011;9573;50.948;11.600;2023-09-30T04:17:36;14.77;;;3.60;;
18881;SDS011;9573;50.948;11.600;2023-09-30T04:20:04;14.73;;;3.00;;
18881;SDS011;9573;50.948;11.600;2023-09-30T04:22:35;12.77;;;3.00;;
18881;SDS011;9573;50.948;11.600;2023-09-30T04:25:04;12.50;;;3.13;;
18881;SDS011;9573;50.948;11.600;2023-09-30T04:27:35;14.67;;;3.10;;
18881;SDS011;9573;50.948;11.600;2023-09-30T04:30:04;17.27;;;3.20;;
18881;SDS011;9573;50.948;11.600;2023-09-30T04:32:34;19.47;;;3.43;;
18881;SDS011;9573;50.948;11.600;2023-09-30T04:35:02;11.73;;;3.00;;
18881;SDS011;9573;50.948;11.600;2023-09-30T04:37:29;12.97;;;3.00;;
18881;SDS011;9573;50.948;11.600;2023-09-30T04:39:56;12.83;;;3.23;;
18881;SDS011;9573;50.948;11.600;2023-09-30T04:42:23;20.13;;;3.23;;
18881;SDS011;9573;50.948;11.600;2023-09-30T04:44:52;12.07;;;3.20;;
18881;SDS011;9573;50.948;11.600;2023-09-30T04:47:20;14.17;;;3.40;;
18881;SDS011;9573;50.948;11.600;2023-09-30T04:49:49;18.03;;;3.43;;
18881;SDS011;9573;50.948;11.600;2023-09-30T04:52:16;18.17;;;3.17;;
18881;SDS011;9573;50.948;11.600;2023-09-30T04:54:43;11.57;;;3.07;;
18881;SDS011;9573;50.948;11.600;2023-09-30T04:57:11;11.93;;;3.00;;
18881;SDS011;9573;50.948;11.600;2023-09-30T04:59:38;14.17;;;3.40;;
18881;SDS011;9573;50.948;11.600;2023-09-30T05:02:06;12.03;;;3.17;;
18881;SDS011;9573;50.948;11.600;2023-09-30T05:04:33;15.40;;;3.30;;
18881;SDS011;9573;50.948;11.600;2023-09-30T05:07:01;15.57;;;3.23;;
18881;SDS011;9573;50.948;11.600;2023-09-30T05:09:29;16.00;;;3.63;;
18881;SDS011;9573;50.948;11.600;2023-09-30T05:11:56;10.70;;;3.10;;
18881;SDS011;9573;50.948;11.600;2023-09-30T05:14:23;11.23;;;3.07;;
18881;SDS011;9573;50.948;11.600;2023-09-30T05:16:52;15.27;;;3.33;;
18881;SDS011;9573;50.948;11.600;2023-09-30T05:19:22;16.03;;;3.47;;
18881;SDS011;9573;50.948;11.600;2023-09-30T05:21:51;15.97;;;3.83;;
18881;SDS011;9573;50.948;11.600;2023-09-30T05:24:18;14.47;;;3.57;;
18881;SDS011;9573;50.948;11.600;2023-09-30T05:26:46;16.53;;;4.27;;
18881;SDS011;9573;50.948;11.600;2023-09-30T05:29:13;14.27;;;3.80;;
18881;SDS011;9573;50.948;11.600;2023-09-30T05:31:42;17.57;;;3.50;;
18881;SDS011;9573;50.948;11.600;2023-09-30T05:34:10;12.83;;;3.23;;
18881;SDS011;9573;50.948;11.600;2023-09-30T05:36:38;19.17;;;5.43;;
18881;SDS011;9573;50.948;11.600;2023-09-30T05:39:05;13.43;;;3.07;;
18881;SDS011;9573;50.948;11.600;2023-09-30T05:41:35;11.27;;;3.53;;
18881;SDS011;9573;50.948;11.600;2023-09-30T05:44:03;21.10;;;3.80;;
18881;SDS011;9573;50.948;11.600;2023-09-30T05:46:31;14.17;;;3.37;;
18881;SDS011;9573;50.948;11.600;2023-09-30T05:48:58;14.07;;;3.53;;
18881;SDS011;9573;50.948;11.600;2023-09-30T05:51:25;18.73;;;3.97;;
18881;SDS011;9573;50.948;11.600;2023-09-30T05:53:54;14.17;;;3.47;;
18881;SDS011;9573;50.948;11.600;2023-09-30T05:56:21;15.40;;;3.77;;
18881;SDS011;9573;50.948;11.600;2023-09-30T05:58:48;15.90;;;3.30;;
18881;SDS011;9573;50.948;11.600;2023-09-30T06:01:15;13.90;;;3.20;;
18881;SDS011;9573;50.948;11.600;2023-09-30T06:03:44;11.03;;;3.00;;
18881;SDS011;9573;50.948;11.600;2023-09-30T06:06:12;15.50;;;3.40;;
18881;SDS011;9573;50.948;11.600;2023-09-30T06:08:41;15.17;;;3.33;;
18881;SDS011;9573;50.948;11.600;2023-09-30T06:11:17;15.17;;;3.40;;
18881;SDS011;9573;50.948;11.600;2023-09-30T06:13:44;18.40;;;3.53;;
18881;SDS011;9573;50.948;11.600;2023-09-30T06:16:12;12.80;;;3.10;;
18881;SDS011;9573;50.948;11.600;2023-09-30T06:18:39;19.03;;;3.73;;
18881;SDS011;9573;50.948;11.600;2023-09-30T06:21:06;17.73;;;3.83;;
18881;SDS011;9573;50.948;11.600;2023-09-30T06:23:35;12.10;;;3.60;;
18881;SDS011;9573;50.948;11.600;2023-09-30T06:26:03;13.47;;;3.40;;
18881;SDS011;9573;50.948;11.600;2023-09-30T06:28:31;14.63;;;3.60;;
18881;SDS011;9573;50.948;11.600;2023-09-30T06:31:05;13.53;;;3.90;;
18881;SDS011;9573;50.948;11.600;2023-09-30T06:33:33;20.07;;;5.47;;
18881;SDS011;9573;50.948;11.600;2023-09-30T06:36:01;17.23;;;4.10;;
18881;SDS011;9573;50.948;11.600;2023-09-30T06:38:29;17.77;;;3.90;;
18881;SDS011;9573;50.948;11.600;2023-09-30T06:40:56;16.00;;;3.47;;
18881;SDS011;9573;50.948;11.600;2023-09-30T06:43:23;13.60;;;3.43;;
18881;SDS011;9573;50.948;11.600;2023-09-30T06:45:51;15.60;;;3.97;;
18881;SDS011;9573;50.948;11.600;2023-09-30T06:48:19;16.13;;;3.60;;
18881;SDS011;9573;50.948;11.600;2023-09-30T06:50:48;11.00;;;3.13;;
18881;SDS011;9573;50.948;11.600;2023-09-30T06:53:18;15.13;;;3.53;;
18881;SDS011;9573;50.948;11.600;2023-09-30T06:55:46;13.53;;;3.57;;
18881;SDS011;9573;50.948;11.600;2023-09-30T06:58:14;11.37;;;3.23;;
18881;SDS011;9573;50.948;11.600;2023-09-30T07:00:46;13.50;;;3.53;;
18881;SDS011;9573;50.948;11.600;2023-09-30T07:03:15;15.63;;;3.30;;
18881;SDS011;9573;50.948;11.600;2023-09-30T07:05:42;14.33;;;3.43;;
18881;SDS011;9573;50.948;11.600;2023-09-30T07:08:09;11.93;;;3.10;;
18881;SDS011;9573;50.948;11.600;2023-09-30T07:10:37;15.87;;;3.30;;
18881;SDS011;9573;50.948;11.600;2023-09-30T07:13:04;16.83;;;4.57;;
18881;SDS011;9573;50.948;11.600;2023-09-30T07:15:31;14.33;;;3.43;;
18881;SDS011;9573;50.948;11.600;2023-09-30T07:17:59;15.17;;;3.90;;
18881;SDS011;9573;50.948;11.600;2023-09-30T07:20:27;17.17;;;3.37;;
18881;SDS011;9573;50.948;11.600;2023-09-30T07:22:57;21.77;;;3.33;;
18881;SDS011;9573;50.948;11.600;2023-09-30T07:25:25;10.00;;;3.17;;
18881;SDS011;9573;50.948;11.600;2023-09-30T07:27:52;16.27;;;3.90;;
18881;SDS011;9573;50.948;11.600;2023-09-30T07:30:19;18.90;;;3.63;;
18881;SDS011;9573;50.948;11.600;2023-09-30T07:32:46;15.33;;;3.87;;
18881;SDS011;9573;50.948;11.600;2023-09-30T07:35:13;14.40;;;3.60;;
18881;SDS011;9573;50.948;11.600;2023-09-30T07:37:42;14.70;;;4.10;;
18881;SDS011;9573;50.948;11.600;2023-09-30T07:40:12;17.17;;;3.53;;
18881;SDS011;9573;50.948;11.600;2023-09-30T07:42:40;14.90;;;3.50;;
18881;SDS011;9573;50.948;11.600;2023-09-30T07:45:07;18.67;;;4.03;;
18881;SDS011;9573;50.948;11.600;2023-09-30T07:47:36;20.63;;;4.00;;
18881;SDS011;9573;50.948;11.600;2023-09-30T07:50:03;27.10;;;4.80;;
18881;SDS011;9573;50.948;11.600;2023-09-30T07:52:34;23.27;;;4.40;;
18881;SDS011;9573;50.948;11.600;2023-09-30T07:55:03;21.50;;;3.80;;
18881;SDS011;9573;50.948;11.600;2023-09-30T07:57:31;16.40;;;3.40;;
18881;SDS011;9573;50.948;11.600;2023-09-30T07:59:59;20.70;;;3.50;;
18881;SDS011;9573;50.948;11.600;2023-09-30T08:02:27;14.93;;;3.57;;
18881;SDS011;9573;50.948;11.600;2023-09-30T08:04:58;16.47;;;3.37;;
18881;SDS011;9573;50.948;11.600;2023-09-30T08:07:25;18.17;;;4.00;;
18881;SDS011;9573;50.948;11.600;2023-09-30T08:09:53;16.30;;;3.73;;
18881;SDS011;9573;50.948;11.600;2023-09-30T08:12:21;18.50;;;3.90;;
18881;SDS011;9573;50.948;11.600;2023-09-30T08:14:48;15.00;;;3.90;;
18881;SDS011;9573;50.948;11.600;2023-09-30T08:17:16;16.13;;;3.50;;
18881;SDS011;9573;50.948;11.600;2023-09-30T08:19:43;19.87;;;3.90;;
18881;SDS011;9573;50.948;11.600;2023-09-30T08:22:12;16.53;;;3.70;;
18881;SDS011;9573;50.948;11.600;2023-09-30T08:24:40;20.90;;;4.23;;
18881;SDS011;9573;50.948;11.600;2023-09-30T08:27:07;15.90;;;3.33;;
18881;SDS011;9573;50.948;11.600;2023-09-30T08:29:36;17.13;;;3.63;;
18881;SDS011;9573;50.948;11.600;2023-09-30T08:32:03;17.40;;;3.75;;
18881;SDS011;9573;50.948;11.600;2023-09-30T08:34:30;20.15;;;4.10;;
18881;SDS011;9573;50.948;11.600;2023-09-30T08:36:58;14.90;;;3.70;;
18881;SDS011;9573;50.948;11.600;2023-09-30T08:39:26;16.17;;;3.63;;
18881;SDS011;9573;50.948;11.600;2023-09-30T08:41:54;15.70;;;3.60;;
18881;SDS011;9573;50.948;11.600;2023-09-30T08:44:23;19.65;;;3.70;;
18881;SDS011;9573;50.948;11.600;2023-09-30T08:46:52;18.73;;;3.72;;
18881;SDS011;9573;50.948;11.600;2023-09-30T08:49:21;15.82;;;3.35;;
18881;SDS011;9573;50.948;11.600;2023-09-30T08:51:51;19.13;;;3.92;;
18881;SDS011;9573;50.948;11.600;2023-09-30T08:54:21;16.67;;;3.63;;
18881;SDS011;9573;50.948;11.600;2023-09-30T08:56:48;15.20;;;3.80;;
18881;SDS011;9573;50.948;11.600;2023-09-30T08:59:16;20.33;;;3.90;;
18881;SDS011;9573;50.948;11.600;2023-09-30T09:01:43;16.65;;;3.78;;
18881;SDS011;9573;50.948;11.600;2023-09-30T09:04:12;14.45;;;3.65;;
18881;SDS011;9573;50.948;11.600;2023-09-30T09:06:40;16.45;;;3.40;;
18881;SDS011;9573;50.948;11.600;2023-09-30T09:09:13;17.55;;;3.70;;
18881;SDS011;9573;50.948;11.600;2023-09-30T09:11:42;17.20;;;3.50;;
18881;SDS011;9573;50.948;11.600;2023-09-30T09:14:09;14.68;;;3.70;;
18881;SDS011;9573;50.948;11.600;2023-09-30T09:16:50;13.75;;;3.83;;
18881;SDS011;9573;50.948;11.600;2023-09-30T09:19:20;12.70;;;3.15;;
18881;SDS011;9573;50.948;11.600;2023-09-30T09:21:54;10.25;;;2.80;;
18881;SDS011;9573;50.948;11.600;2023-09-30T09:24:27;13.40;;;3.38;;
18881;SDS011;9573;50.948;11.600;2023-09-30T09:27:05;15.98;;;3.17;;
18881;SDS011;9573;50.948;11.600;2023-09-30T09:29:33;10.68;;;3.25;;
18881;SDS011;9573;50.948;11.600;2023-09-30T09:32:11;13.68;;;3.00;;
18881;SDS011;9573;50.948;11.600;2023-09-30T09:34:41;13.93;;;3.08;;
18881;SDS011;9573;50.948;11.600;2023-09-30T09:37:13;13.73;;;3.28;;
18881;SDS011;9573;50.948;11.600;2023-09-30T09:39:51;15.30;;;3.58;;
18881;SDS011;9573;50.948;11.600;2023-09-30T09:42:23;13.82;;;3.05;;
18881;SDS011;9573;50.948;11.600;2023-09-30T09:44:52;19.13;;;3.33;;
18881;SDS011;9573;50.948;11.600;2023-09-30T09:47:23;12.57;;;2.83;;
18881;SDS011;9573;50.948;11.600;2023-09-30T09:49:52;15.45;;;3.53;;
18881;SDS011;9573;50.948;11.600;2023-09-30T09:52:20;11.05;;;3.00;;
18881;SDS011;9573;50.948;11.600;2023-09-30T09:54:48;17.83;;;3.20;;
18881;SDS011;9573;50.948;11.600;2023-09-30T09:57:17;11.85;;;2.75;;
18881;SDS011;9573;50.948;11.600;2023-09-30T09:59:46;16.55;;;3.33;;
18881;SDS011;9573;50.948;11.600;2023-09-30T10:02:14;14.95;;;2.97;;
18881;SDS011;9573;50.948;11.600;2023-09-30T10:04:43;11.68;;;2.90;;
18881;SDS011;9573;50.948;11.600;2023-09-30T10:07:14;17.45;;;3.35;;
18881;SDS011;9573;50.948;11.600;2023-09-30T10:09:49;8.68;;;2.50;;
18881;SDS011;9573;50.948;11.600;2023-09-30T10:12:19;13.55;;;2.90;;
18881;SDS011;9573;50.948;11.600;2023-09-30T10:14:47;10.98;;;2.85;;
18881;SDS011;9573;50.948;11.600;2023-09-30T10:17:14;15.00;;;3.40;;
18881;SDS011;9573;50.948;11.600;2023-09-30T10:20:02;12.52;;;3.10;;
18881;SDS011;9573;50.948;11.600;2023-09-30T10:22:33;16.50;;;3.08;;
18881;SDS011;9573;50.948;11.600;2023-09-30T10:25:00;17.83;;;3.30;;
18881;SDS011;9573;50.948;11.600;2023-09-30T10:28:00;14.80;;;2.88;;
18881;SDS011;9573;50.948;11.600;2023-09-30T10:31:12;10.07;;;2.80;;
18881;SDS011;9573;50.948;11.600;2023-09-30T10:36:47;12.98;;;3.00;;
18881;SDS011;9573;50.948;11.600;2023-09-30T10:51:09;12.25;;;2.78;;
18881;SDS011;9573;50.948;11.600;2023-09-30T10:53:43;8.77;;;2.67;;
18881;SDS011;9573;50.948;11.600;2023-09-30T10:56:13;10.52;;;2.60;;
18881;SDS011;9573;50.948;11.600;2023-09-30T10:58:42;9.40;;;2.55;;
18881;SDS011;9573;50.948;11.600;2023-09-30T11:01:10;9.23;;;2.50;;
18881;SDS011;9573;50.948;11.600;2023-09-30T11:03:39;10.85;;;2.47;;
18881;SDS011;9573;50.948;11.600;2023-09-30T11:06:07;11.55;;;2.60;;
18881;SDS011;9573;50.948;11.600;2023-09-30T11:08:40;13.52;;;2.90;;
18881;SDS011;9573;50.948;11.600;2023-09-30T11:11:14;16.63;;;3.10;;
18881;SDS011;9573;50.948;11.600;2023-09-30T11:13:41;11.88;;;2.70;;
18881;SDS011;9573;50.948;11.600;2023-09-30T11:16:08;8.82;;;2.60;;
18881;SDS011;9573;50.948;11.600;2023-09-30T11:18:36;11.63;;;2.78;;
18881;SDS011;9573;50.948;11.600;2023-09-30T11:21:04;8.50;;;2.75;;
18881;SDS011;9573;50.948;11.600;2023-09-30T11:23:33;10.77;;;2.90;;
18881;SDS011;9573;50.948;11.600;2023-09-30T11:26:02;12.98;;;2.35;;
18881;SDS011;9573;50.948;11.600;2023-09-30T11:28:39;8.43;;;2.40;;
18881;SDS011;9573;50.948;11.600;2023-09-30T11:31:08;9.75;;;2.60;;
18881;SDS011;9573;50.948;11.600;2023-09-30T11:33:49;12.32;;;2.55;;
18881;SDS011;9573;50.948;11.600;2023-09-30T11:36:18;10.65;;;2.50;;
18881;SDS011;9573;50.948;11.600;2023-09-30T11:38:50;12.30;;;2.58;;
18881;SDS011;9573;50.948;11.600;2023-09-30T11:41:18;6.63;;;2.30;;
18881;SDS011;9573;50.948;11.600;2023-09-30T11:44:02;9.38;;;2.58;;
18881;SDS011;9573;50.948;11.600;2023-09-30T11:46:33;11.02;;;2.65;;
18881;SDS011;9573;50.948;11.600;2023-09-30T11:49:29;8.60;;;2.50;;
18881;SDS011;9573;50.948;11.600;2023-09-30T11:52:00;9.95;;;2.33;;
18881;SDS011;9573;50.948;11.600;2023-09-30T11:54:29;9.85;;;2.72;;
18881;SDS011;9573;50.948;11.600;2023-09-30T11:56:59;10.48;;;2.25;;
18881;SDS011;9573;50.948;11.600;2023-09-30T11:59:29;4.25;;;1.95;;
18881;SDS011;9573;50.948;11.600;2023-09-30T12:01:56;9.30;;;2.50;;
18881;SDS011;9573;50.948;11.600;2023-09-30T12:04:24;14.32;;;2.70;;
18881;SDS011;9573;50.948;11.600;2023-09-30T12:06:51;9.18;;;2.60;;
18881;SDS011;9573;50.948;11.600;2023-09-30T12:09:19;7.80;;;2.45;;
18881;SDS011;9573;50.948;11.600;2023-09-30T12:11:50;10.77;;;2.78;;
18881;SDS011;9573;50.948;11.600;2023-09-30T12:14:18;8.48;;;2.30;;
18881;SDS011;9573;50.948;11.600;2023-09-30T12:16:50;9.45;;;2.58;;
18881;SDS011;9573;50.948;11.600;2023-09-30T12:19:17;9.95;;;2.40;;
18881;SDS011;9573;50.948;11.600;2023-09-30T12:21:45;9.13;;;2.35;;
18881;SDS011;9573;50.948;11.600;2023-09-30T12:24:13;8.27;;;2.20;;
18881;SDS011;9573;50.948;11.600;2023-09-30T12:26:44;12.20;;;2.45;;
18881;SDS011;9573;50.948;11.600;2023-09-30T12:29:13;7.75;;;2.10;;
18881;SDS011;9573;50.948;11.600;2023-09-30T12:31:42;10.38;;;2.35;;
18881;SDS011;9573;50.948;11.600;2023-09-30T12:34:11;10.00;;;2.42;;
18881;SDS011;9573;50.948;11.600;2023-09-30T12:36:39;12.57;;;2.92;;
18881;SDS011;9573;50.948;11.600;2023-09-30T12:39:06;17.38;;;3.55;;
18881;SDS011;9573;50.948;11.600;2023-09-30T12:41:36;7.28;;;2.55;;
18881;SDS011;9573;50.948;11.600;2023-09-30T12:44:04;10.68;;;2.22;;
18881;SDS011;9573;50.948;11.600;2023-09-30T12:46:32;14.13;;;2.70;;
18881;SDS011;9573;50.948;11.600;2023-09-30T12:49:02;11.18;;;2.42;;
18881;SDS011;9573;50.948;11.600;2023-09-30T12:51:31;13.52;;;2.75;;
18881;SDS011;9573;50.948;11.600;2023-09-30T12:53:58;10.35;;;2.55;;
18881;SDS011;9573;50.948;11.600;2023-09-30T12:56:26;14.85;;;3.25;;
18881;SDS011;9573;50.948;11.600;2023-09-30T12:58:54;14.48;;;2.60;;
18881;SDS011;9573;50.948;11.600;2023-09-30T13:01:21;12.48;;;2.88;;
18881;SDS011;9573;50.948;11.600;2023-09-30T13:03:48;9.05;;;2.35;;
18881;SDS011;9573;50.948;11.600;2023-09-30T13:06:16;13.20;;;2.78;;
18881;SDS011;9573;50.948;11.600;2023-09-30T13:08:45;10.73;;;2.63;;
18881;SDS011;9573;50.948;11.600;2023-09-30T13:11:13;11.82;;;2.53;;
18881;SDS011;9573;50.948;11.600;2023-09-30T13:13:40;12.90;;;2.50;;
18881;SDS011;9573;50.948;11.600;2023-09-30T13:16:09;13.60;;;2.55;;
18881;SDS011;9573;50.948;11.600;2023-09-30T13:18:37;13.15;;;2.80;;
18881;SDS011;9573;50.948;11.600;2023-09-30T13:21:05;10.85;;;2.80;;
18881;SDS011;9573;50.948;11.600;2023-09-30T13:23:32;9.55;;;2.33;;
18881;SDS011;9573;50.948;11.600;2023-09-30T13:26:00;11.77;;;2.47;;
18881;SDS011;9573;50.948;11.600;2023-09-30T13:28:28;11.27;;;2.35;;
18881;SDS011;9573;50.948;11.600;2023-09-30T13:30:55;9.48;;;2.47;;
18881;SDS011;9573;50.948;11.600;2023-09-30T13:33:23;14.55;;;2.40;;
18881;SDS011;9573;50.948;11.600;2023-09-30T13:35:50;17.20;;;2.33;;
18881;SDS011;9573;50.948;11.600;2023-09-30T13:38:17;14.85;;;2.53;;
18881;SDS011;9573;50.948;11.600;2023-09-30T13:40:45;13.02;;;2.63;;
18881;SDS011;9573;50.948;11.600;2023-09-30T13:43:13;15.50;;;2.75;;
18881;SDS011;9573;50.948;11.600;2023-09-30T13:45:41;10.88;;;2.33;;
18881;SDS011;9573;50.948;11.600;2023-09-30T13:48:08;9.43;;;2.23;;
18881;SDS011;9573;50.948;11.600;2023-09-30T13:50:35;11.87;;;2.33;;
18881;SDS011;9573;50.948;11.600;2023-09-30T13:53:03;13.60;;;2.40;;
18881;SDS011;9573;50.948;11.600;2023-09-30T13:55:30;16.60;;;2.47;;
18881;SDS011;9573;50.948;11.600;2023-09-30T13:57:57;9.53;;;2.23;;
18881;SDS011;9573;50.948;11.600;2023-09-30T14:00:26;10.83;;;2.50;;
18881;SDS011;9573;50.948;11.600;2023-09-30T14:02:53;11.07;;;2.80;;
18881;SDS011;9573;50.948;11.600;2023-09-30T14:05:20;12.63;;;2.73;;
18881;SDS011;9573;50.948;11.600;2023-09-30T14:07:48;15.10;;;2.90;;
18881;SDS011;9573;50.948;11.600;2023-09-30T14:10:16;12.83;;;2.43;;
18881;SDS011;9573;50.948;11.600;2023-09-30T14:12:43;16.10;;;2.40;;
18881;SDS011;9573;50.948;11.600;2023-09-30T14:15:10;12.73;;;2.50;;
18881;SDS011;9573;50.948;11.600;2023-09-30T14:17:39;13.10;;;2.60;;
18881;SDS011;9573;50.948;11.600;2023-09-30T14:20:06;11.83;;;2.60;;
18881;SDS011;9573;50.948;11.600;2023-09-30T14:22:35;9.20;;;2.10;;
18881;SDS011;9573;50.948;11.600;2023-09-30T14:25:02;10.37;;;2.40;;
18881;SDS011;9573;50.948;11.600;2023-09-30T14:27:30;15.70;;;2.60;;
18881;SDS011;9573;50.948;11.600;2023-09-30T14:29:58;12.60;;;2.67;;
18881;SDS011;9573;50.948;11.600;2023-09-30T14:32:25;10.60;;;2.20;;
18881;SDS011;9573;50.948;11.600;2023-09-30T14:34:54;18.23;;;2.80;;
18881;SDS011;9573;50.948;11.600;2023-09-30T14:37:22;12.87;;;2.60;;
18881;SDS011;9573;50.948;11.600;2023-09-30T14:39:50;11.77;;;2.50;;
18881;SDS011;9573;50.948;11.600;2023-09-30T14:42:17;13.77;;;2.60;;
18881;SDS011;9573;50.948;11.600;2023-09-30T14:44:44;12.20;;;2.37;;
18881;SDS011;9573;50.948;11.600;2023-09-30T14:47:12;9.27;;;2.03;;
18881;SDS011;9573;50.948;11.600;2023-09-30T14:49:40;10.23;;;2.40;;
18881;SDS011;9573;50.948;11.600;2023-09-30T14:52:11;13.30;;;2.47;;
18881;SDS011;9573;50.948;11.600;2023-09-30T14:54:39;14.50;;;2.40;;
18881;SDS011;9573;50.948;11.600;2023-09-30T14:57:06;15.10;;;2.53;;
18881;SDS011;9573;50.948;11.600;2023-09-30T14:59:35;14.13;;;2.40;;
18881;SDS011;9573;50.948;11.600;2023-09-30T15:02:02;10.07;;;2.40;;